Ana Sayfa
METAR-TAF:

METAR-TAF

Havaalanları :

Moroni, Komor Adaları

Enlem: 11-32S, Boylam: 043-16E, yükseklik: 29 m

Güncel hava durumu gözlemi

Rapor saat 12:00 UTC de 51 dakika önce yapıldı.
Rüzgar güney/güneybatıdan 15 kt
Sıcaklık 31°C
Nem 63%
Basınç 1014 hPa
Görüş mesafesi 10 km veya daha fazla
3000 ft yükseklikte parçalı bulutlu

METAR: FMCH 241200Z 21015KT 9999 SCT030 31/23 Q1014 NOSIG

Saat: 15:51 (12:51 UTC)

Tahmin

Rapor saat 11:00 UTC de 1 saat ve 51 dakika önce yapıldı.
Ayın 24'si saat 12 UTC'den ayın 25'si saat 18 UTC'ye kadar geçerli Tahmin
Rüzgar güney/güneybatıdan 13 kt
Görüş mesafesi 10 km veya daha fazla
2400 ft yükseklikte az bulutlu
Dönüşüyor
ayın 24'si saat 16 UTC'den ayın 24'si saat 18 UTC'ye kadar
Rüzgar değişken yönden 3 kt
Dönüşüyor
ayın 25'si saat 05 UTC'den ayın 25'si saat 07 UTC'ye kadar
Rüzgar güneydan 10 kt

TAF: FMCH 241100Z 2412/2518 20013KT 9999 FEW024 BECMG 2416/2418 VRB03KT BECMG 2505/2507 19010KT

4.000'den fazla havaalanı için hava durumu gözlemleri ve tahminleri (METAR ve TAF raporları).

Kullanılabilir istasyonlar harita üzerinde sarı ve kırmızı noktalarla gösterilir.

İstasyonun adını görmek için fareyi noktanın üzerinde gezdirin.

Sonrasında hava gözlem ve tahminlerini görmek için tıklayın.

Haritayı değiştirmek için: yaklaştırmak için siyah artı işaretli yeşil düğmeye ve uzaklaştırmak için de eksi işaretli düğmeye hızla tıklayın; bitişik haritalar için yeşil okları kullanın.


METAR-TAF: